sensor_id;sensor_type;location;lat;lon;timestamp;pressure;altitude;pressure_sealevel;temperature;humidity
11343;BME280;5726;42.160;24.746;2023-04-02T00:09:15;98614.00;;;11.59;74.84
11343;BME280;5726;42.160;24.746;2023-04-02T00:11:46;98620.09;;;11.26;77.41
11343;BME280;5726;42.160;24.746;2023-04-02T00:14:32;98615.72;;;11.47;75.59
11343;BME280;5726;42.160;24.746;2023-04-02T00:17:00;98623.47;;;11.57;74.55
11343;BME280;5726;42.160;24.746;2023-04-02T00:19:34;98621.88;;;11.56;74.91
11343;BME280;5726;42.160;24.746;2023-04-02T00:22:02;98622.00;;;11.43;76.28
11343;BME280;5726;42.160;24.746;2023-04-02T00:24:31;98628.94;;;11.35;76.96
11343;BME280;5726;42.160;24.746;2023-04-02T00:26:57;98618.38;;;11.30;77.07
11343;BME280;5726;42.160;24.746;2023-04-02T00:29:22;98621.34;;;11.12;77.44
11343;BME280;5726;42.160;24.746;2023-04-02T00:31:50;98621.50;;;11.15;77.68
11343;BME280;5726;42.160;24.746;2023-04-02T00:34:31;98633.84;;;11.16;77.58
11343;BME280;5726;42.160;24.746;2023-04-02T00:36:58;98622.34;;;11.33;76.37
11343;BME280;5726;42.160;24.746;2023-04-02T00:39:28;98610.84;;;11.49;74.72
11343;BME280;5726;42.160;24.746;2023-04-02T00:41:56;98613.69;;;11.61;74.02
11343;BME280;5726;42.160;24.746;2023-04-02T00:44:40;98610.22;;;11.52;74.42
11343;BME280;5726;42.160;24.746;2023-04-02T00:47:23;98615.25;;;11.62;74.10
11343;BME280;5726;42.160;24.746;2023-04-02T00:49:56;98626.91;;;11.41;75.18
11343;BME280;5726;42.160;24.746;2023-04-02T00:52:26;98633.56;;;11.43;75.53
11343;BME280;5726;42.160;24.746;2023-04-02T00:55:16;98619.97;;;11.31;76.54
11343;BME280;5726;42.160;24.746;2023-04-02T00:57:45;98618.59;;;11.50;75.46
11343;BME280;5726;42.160;24.746;2023-04-02T01:05:47;98635.94;;;11.61;74.53
11343;BME280;5726;42.160;24.746;2023-04-02T01:25:35;98630.38;;;11.24;76.15
11343;BME280;5726;42.160;24.746;2023-04-02T01:28:15;98633.56;;;11.43;74.85
11343;BME280;5726;42.160;24.746;2023-04-02T01:30:50;98628.63;;;11.28;76.49
11343;BME280;5726;42.160;24.746;2023-04-02T01:33:17;98646.22;;;11.51;75.15
11343;BME280;5726;42.160;24.746;2023-04-02T01:35:44;98638.28;;;11.46;75.64
11343;BME280;5726;42.160;24.746;2023-04-02T01:38:17;98638.31;;;11.63;74.04
11343;BME280;5726;42.160;24.746;2023-04-02T01:40:56;98641.47;;;11.48;74.52
11343;BME280;5726;42.160;24.746;2023-04-02T01:45:50;98642.28;;;11.65;72.64
11343;BME280;5726;42.160;24.746;2023-04-02T01:48:22;98648.72;;;11.56;73.68
11343;BME280;5726;42.160;24.746;2023-04-02T01:50:50;98654.41;;;11.46;73.78
11343;BME280;5726;42.160;24.746;2023-04-02T01:53:17;98651.56;;;11.51;73.75
11343;BME280;5726;42.160;24.746;2023-04-02T01:55:50;98643.53;;;11.68;73.00
11343;BME280;5726;42.160;24.746;2023-04-02T01:58:20;98647.16;;;11.55;72.84
11343;BME280;5726;42.160;24.746;2023-04-02T02:03:25;98640.84;;;11.51;72.88
11343;BME280;5726;42.160;24.746;2023-04-02T02:05:50;98637.19;;;11.47;72.82
11343;BME280;5726;42.160;24.746;2023-04-02T02:10:53;98630.69;;;11.40;73.33
11343;BME280;5726;42.160;24.746;2023-04-02T02:13:20;98624.06;;;11.29;73.61
11343;BME280;5726;42.160;24.746;2023-04-02T02:15:46;98631.31;;;11.28;74.27
11343;BME280;5726;42.160;24.746;2023-04-02T02:18:12;98623.41;;;11.23;74.50
11343;BME280;5726;42.160;24.746;2023-04-02T02:20:38;98617.28;;;11.40;73.71
11343;BME280;5726;42.160;24.746;2023-04-02T02:23:04;98614.44;;;11.44;73.19
11343;BME280;5726;42.160;24.746;2023-04-02T02:25:32;98617.31;;;11.48;73.02
11343;BME280;5726;42.160;24.746;2023-04-02T02:30:42;98607.66;;;11.47;73.87
11343;BME280;5726;42.160;24.746;2023-04-02T02:33:22;98608.63;;;11.51;72.24
11343;BME280;5726;42.160;24.746;2023-04-02T02:35:56;98619.84;;;11.61;70.57
11343;BME280;5726;42.160;24.746;2023-04-02T02:38:31;98614.47;;;11.70;69.57
11343;BME280;5726;42.160;24.746;2023-04-02T02:41:05;98626.78;;;11.79;69.18
11343;BME280;5726;42.160;24.746;2023-04-02T02:43:32;98613.22;;;11.76;69.85
11343;BME280;5726;42.160;24.746;2023-04-02T02:46:01;98625.06;;;11.75;70.01
11343;BME280;5726;42.160;24.746;2023-04-02T02:48:34;98626.78;;;11.79;69.63
11343;BME280;5726;42.160;24.746;2023-04-02T02:51:06;98625.97;;;11.95;69.00
11343;BME280;5726;42.160;24.746;2023-04-02T02:53:44;98621.88;;;11.90;69.59
11343;BME280;5726;42.160;24.746;2023-04-02T02:56:11;98638.59;;;12.12;68.83
11343;BME280;5726;42.160;24.746;2023-04-02T02:58:37;98632.44;;;12.11;69.36
11343;BME280;5726;42.160;24.746;2023-04-02T03:01:03;98648.88;;;12.10;69.70
11343;BME280;5726;42.160;24.746;2023-04-02T03:03:30;98638.13;;;12.01;70.18
11343;BME280;5726;42.160;24.746;2023-04-02T03:06:09;98655.66;;;12.07;69.39
11343;BME280;5726;42.160;24.746;2023-04-02T03:08:44;98644.59;;;12.00;69.85
11343;BME280;5726;42.160;24.746;2023-04-02T03:13:52;98644.00;;;11.70;71.51
11343;BME280;5726;42.160;24.746;2023-04-02T03:16:51;98650.66;;;11.64;72.13
11343;BME280;5726;42.160;24.746;2023-04-02T03:19:39;98635.63;;;11.88;72.15
11343;BME280;5726;42.160;24.746;2023-04-02T03:22:18;98648.09;;;11.93;72.19
11343;BME280;5726;42.160;24.746;2023-04-02T03:24:58;98633.56;;;11.93;72.27
11343;BME280;5726;42.160;24.746;2023-04-02T03:27:33;98644.47;;;12.05;72.26
11343;BME280;5726;42.160;24.746;2023-04-02T03:30:37;98641.59;;;12.02;72.84
11343;BME280;5726;42.160;24.746;2023-04-02T03:33:12;98640.00;;;12.26;71.97
11343;BME280;5726;42.160;24.746;2023-04-02T03:38:15;98654.56;;;11.92;74.71
11343;BME280;5726;42.160;24.746;2023-04-02T03:41:14;98649.84;;;11.72;76.21
11343;BME280;5726;42.160;24.746;2023-04-02T03:43:43;98655.34;;;11.50;78.04
11343;BME280;5726;42.160;24.746;2023-04-02T03:46:24;98660.84;;;11.45;79.27
11343;BME280;5726;42.160;24.746;2023-04-02T03:48:58;98656.78;;;11.47;79.19
11343;BME280;5726;42.160;24.746;2023-04-02T03:51:37;98670.44;;;11.29;80.34
11343;BME280;5726;42.160;24.746;2023-04-02T03:54:04;98665.91;;;11.30;80.12
11343;BME280;5726;42.160;24.746;2023-04-02T03:56:31;98663.69;;;11.32;80.71
11343;BME280;5726;42.160;24.746;2023-04-02T03:59:12;98664.78;;;11.31;81.06
11343;BME280;5726;42.160;24.746;2023-04-02T04:04:39;98653.25;;;11.30;82.47
11343;BME280;5726;42.160;24.746;2023-04-02T04:07:13;98672.94;;;11.17;82.70
11343;BME280;5726;42.160;24.746;2023-04-02T04:09:44;98661.28;;;11.13;83.80
11343;BME280;5726;42.160;24.746;2023-04-02T04:15:06;98666.78;;;11.08;83.62
11343;BME280;5726;42.160;24.746;2023-04-02T04:17:48;98669.63;;;11.20;83.38
11343;BME280;5726;42.160;24.746;2023-04-02T04:22:50;98671.38;;;11.16;83.61
11343;BME280;5726;42.160;24.746;2023-04-02T04:25:29;98677.56;;;11.34;82.51
11343;BME280;5726;42.160;24.746;2023-04-02T04:28:20;98679.13;;;11.26;82.07
11343;BME280;5726;42.160;24.746;2023-04-02T04:30:52;98684.03;;;11.41;81.19
11343;BME280;5726;42.160;24.746;2023-04-02T04:33:30;98691.75;;;11.26;82.08
11343;BME280;5726;42.160;24.746;2023-04-02T04:35:59;98683.75;;;11.34;80.73
11343;BME280;5726;42.160;24.746;2023-04-02T04:38:30;98682.31;;;11.37;79.76
11343;BME280;5726;42.160;24.746;2023-04-02T04:41:19;98677.56;;;11.34;79.66
11343;BME280;5726;42.160;24.746;2023-04-02T04:44:08;98671.22;;;11.21;80.49
11343;BME280;5726;42.160;24.746;2023-04-02T04:46:41;98669.50;;;11.25;79.48
11343;BME280;5726;42.160;24.746;2023-04-02T04:49:19;98674.03;;;11.08;80.98
11343;BME280;5726;42.160;24.746;2023-04-02T04:52:38;98681.63;;;11.06;81.04
11343;BME280;5726;42.160;24.746;2023-04-02T04:54:44;98682.44;;;11.23;80.53
11343;BME280;5726;42.160;24.746;2023-04-02T04:57:30;98678.94;;;11.14;80.43
11343;BME280;5726;42.160;24.746;2023-04-02T05:00:11;98689.66;;;11.14;81.26
11343;BME280;5726;42.160;24.746;2023-04-02T05:02:49;98686.25;;;11.22;80.66
11343;BME280;5726;42.160;24.746;2023-04-02T05:05:26;98683.75;;;11.34;79.28
11343;BME280;5726;42.160;24.746;2023-04-02T05:08:13;98699.44;;;11.49;78.16
11343;BME280;5726;42.160;24.746;2023-04-02T05:10:51;98694.38;;;11.56;78.05
11343;BME280;5726;42.160;24.746;2023-04-02T05:13:41;98706.63;;;11.32;79.18
11343;BME280;5726;42.160;24.746;2023-04-02T05:18:58;98699.25;;;11.54;77.81
11343;BME280;5726;42.160;24.746;2023-04-02T05:21:39;98697.16;;;12.52;85.48
11343;BME280;5726;42.160;24.746;2023-04-02T05:26:57;98700.31;;;12.54;78.87
11343;BME280;5726;42.160;24.746;2023-04-02T05:29:30;98697.47;;;13.04;71.61
11343;BME280;5726;42.160;24.746;2023-04-02T05:32:03;98707.66;;;12.99;71.12
11343;BME280;5726;42.160;24.746;2023-04-02T05:34:34;98700.56;;;12.78;68.52
11343;BME280;5726;42.160;24.746;2023-04-02T05:37:02;98706.69;;;12.41;69.72
11343;BME280;5726;42.160;24.746;2023-04-02T05:39:28;98717.94;;;12.26;71.26
11343;BME280;5726;42.160;24.746;2023-04-02T05:41:59;98706.50;;;12.46;71.16
11343;BME280;5726;42.160;24.746;2023-04-02T05:44:29;98707.72;;;12.57;70.13
11343;BME280;5726;42.160;24.746;2023-04-02T05:46:58;98709.91;;;12.89;68.02
11343;BME280;5726;42.160;24.746;2023-04-02T05:51:51;98705.44;;;12.92;67.94
11343;BME280;5726;42.160;24.746;2023-04-02T05:54:27;98704.25;;;13.10;66.08
11343;BME280;5726;42.160;24.746;2023-04-02T05:57:00;98707.72;;;13.48;63.37
11343;BME280;5726;42.160;24.746;2023-04-02T05:59:30;98712.69;;;13.58;62.09
11343;BME280;5726;42.160;24.746;2023-04-02T06:02:06;98717.06;;;13.71;61.55
11343;BME280;5726;42.160;24.746;2023-04-02T06:04:45;98721.13;;;13.77;60.41
11343;BME280;5726;42.160;24.746;2023-04-02T06:07:21;98716.09;;;13.95;58.73
11343;BME280;5726;42.160;24.746;2023-04-02T06:09:55;98724.63;;;13.97;58.83
11343;BME280;5726;42.160;24.746;2023-04-02T06:12:47;98740.13;;;14.00;57.65
11343;BME280;5726;42.160;24.746;2023-04-02T06:15:17;98733.25;;;14.11;57.73
11343;BME280;5726;42.160;24.746;2023-04-02T06:18:03;98738.53;;;14.28;57.17
11343;BME280;5726;42.160;24.746;2023-04-02T06:20:31;98732.47;;;14.31;57.51
11343;BME280;5726;42.160;24.746;2023-04-02T06:23:03;98735.41;;;14.38;58.16
11343;BME280;5726;42.160;24.746;2023-04-02T06:25:44;98736.94;;;14.27;59.31
11343;BME280;5726;42.160;24.746;2023-04-02T06:28:15;98743.09;;;14.28;59.98
11343;BME280;5726;42.160;24.746;2023-04-02T06:30:42;98743.50;;;14.38;59.15
11343;BME280;5726;42.160;24.746;2023-04-02T06:33:11;98744.56;;;14.25;59.57
11343;BME280;5726;42.160;24.746;2023-04-02T06:35:39;98756.25;;;14.29;58.83
11343;BME280;5726;42.160;24.746;2023-04-02T06:38:14;98750.88;;;14.29;59.50
11343;BME280;5726;42.160;24.746;2023-04-02T06:41:04;98764.16;;;14.34;59.50
11343;BME280;5726;42.160;24.746;2023-04-02T06:43:38;98765.16;;;14.62;57.84
11343;BME280;5726;42.160;24.746;2023-04-02T06:46:30;98767.13;;;14.73;57.25
11343;BME280;5726;42.160;24.746;2023-04-02T06:51:39;98763.00;;;14.87;64.59
11343;BME280;5726;42.160;24.746;2023-04-02T06:54:05;98760.78;;;15.13;55.89
11343;BME280;5726;42.160;24.746;2023-04-02T06:56:46;98767.81;;;15.38;53.24
11343;BME280;5726;42.160;24.746;2023-04-02T06:59:13;98763.56;;;15.49;55.39
11343;BME280;5726;42.160;24.746;2023-04-02T07:04:20;98776.81;;;15.66;54.51
11343;BME280;5726;42.160;24.746;2023-04-02T07:06:46;98774.09;;;15.89;53.15
11343;BME280;5726;42.160;24.746;2023-04-02T07:09:11;98770.94;;;15.99;52.99
11343;BME280;5726;42.160;24.746;2023-04-02T07:11:37;98770.97;;;15.76;50.70
11343;BME280;5726;42.160;24.746;2023-04-02T07:14:03;98772.09;;;15.75;52.94
11343;BME280;5726;42.160;24.746;2023-04-02T07:16:31;98776.81;;;15.77;55.55
11343;BME280;5726;42.160;24.746;2023-04-02T07:18:57;98786.72;;;15.74;53.36
11343;BME280;5726;42.160;24.746;2023-04-02T07:21:24;98783.66;;;15.99;53.23
11343;BME280;5726;42.160;24.746;2023-04-02T07:23:51;98782.88;;;15.98;49.68
11343;BME280;5726;42.160;24.746;2023-04-02T07:26:19;98785.59;;;15.63;51.79
11343;BME280;5726;42.160;24.746;2023-04-02T07:28:45;98786.50;;;15.43;51.94
11343;BME280;5726;42.160;24.746;2023-04-02T07:31:22;98790.56;;;15.49;52.05
11343;BME280;5726;42.160;24.746;2023-04-02T07:33:49;98794.06;;;15.49;52.84
11343;BME280;5726;42.160;24.746;2023-04-02T07:36:17;98787.63;;;15.77;52.12
11343;BME280;5726;42.160;24.746;2023-04-02T07:38:43;98789.22;;;15.78;52.07
11343;BME280;5726;42.160;24.746;2023-04-02T07:41:08;98794.06;;;15.73;51.60
11343;BME280;5726;42.160;24.746;2023-04-02T07:43:34;98792.78;;;15.94;53.23
11343;BME280;5726;42.160;24.746;2023-04-02T07:46:00;98795.97;;;15.96;49.65
11343;BME280;5726;42.160;24.746;2023-04-02T07:48:26;98795.75;;;15.77;50.15
11343;BME280;5726;42.160;24.746;2023-04-02T07:50:52;98799.78;;;15.95;48.76
11343;BME280;5726;42.160;24.746;2023-04-02T07:53:29;98798.72;;;16.12;49.27
11343;BME280;5726;42.160;24.746;2023-04-02T07:55:56;98795.31;;;16.38;49.49
11343;BME280;5726;42.160;24.746;2023-04-02T07:58:21;98789.97;;;16.81;51.86
11343;BME280;5726;42.160;24.746;2023-04-02T08:00:47;98784.84;;;16.91;47.98
11343;BME280;5726;42.160;24.746;2023-04-02T08:03:12;98779.13;;;17.23;45.52
11343;BME280;5726;42.160;24.746;2023-04-02T08:05:38;98783.88;;;16.99;45.25
11343;BME280;5726;42.160;24.746;2023-04-02T08:08:04;98774.88;;;16.95;46.08
11343;BME280;5726;42.160;24.746;2023-04-02T08:10:29;98772.56;;;17.09;45.08
11343;BME280;5726;42.160;24.746;2023-04-02T08:12:55;98767.69;;;17.30;43.99
11343;BME280;5726;42.160;24.746;2023-04-02T08:15:20;98767.84;;;17.37;44.02
11343;BME280;5726;42.160;24.746;2023-04-02T08:17:46;98760.75;;;17.17;44.79
11343;BME280;5726;42.160;24.746;2023-04-02T08:20:17;98771.81;;;17.24;43.80
11343;BME280;5726;42.160;24.746;2023-04-02T08:22:44;98772.47;;;17.52;42.42
11343;BME280;5726;42.160;24.746;2023-04-02T08:25:09;98773.78;;;17.58;42.09
11343;BME280;5726;42.160;24.746;2023-04-02T08:27:35;98772.88;;;17.84;42.09
11343;BME280;5726;42.160;24.746;2023-04-02T08:30:01;98771.50;;;18.09;41.14
11343;BME280;5726;42.160;24.746;2023-04-02T08:32:26;98766.00;;;18.21;39.83
11343;BME280;5726;42.160;24.746;2023-04-02T08:34:53;98759.06;;;18.23;39.16
11343;BME280;5726;42.160;24.746;2023-04-02T08:37:18;98762.28;;;18.29;39.04
11343;BME280;5726;42.160;24.746;2023-04-02T08:39:44;98755.22;;;18.43;37.21
11343;BME280;5726;42.160;24.746;2023-04-02T08:42:22;98757.38;;;18.34;37.62
11343;BME280;5726;42.160;24.746;2023-04-02T08:45:04;98757.22;;;18.65;37.38
11343;BME280;5726;42.160;24.746;2023-04-02T08:47:35;98762.63;;;18.84;36.56
11343;BME280;5726;42.160;24.746;2023-04-02T08:50:12;98755.00;;;18.52;38.41
11343;BME280;5726;42.160;24.746;2023-04-02T08:52:40;98752.22;;;18.48;37.49
11343;BME280;5726;42.160;24.746;2023-04-02T08:55:36;98753.09;;;18.93;36.63
11343;BME280;5726;42.160;24.746;2023-04-02T08:58:53;98750.66;;;19.29;37.19
11343;BME280;5726;42.160;24.746;2023-04-02T09:00:54;98740.00;;;18.99;35.65
11343;BME280;5726;42.160;24.746;2023-04-02T09:03:27;98739.75;;;18.85;36.16
11343;BME280;5726;42.160;24.746;2023-04-02T09:05:53;98741.53;;;18.96;35.50
11343;BME280;5726;42.160;24.746;2023-04-02T09:08:22;98747.53;;;19.05;36.31
11343;BME280;5726;42.160;24.746;2023-04-02T09:11:24;98740.34;;;18.97;36.41
11343;BME280;5726;42.160;24.746;2023-04-02T09:13:56;98750.59;;;18.85;36.56
11343;BME280;5726;42.160;24.746;2023-04-02T09:16:33;98735.63;;;19.13;36.78
11343;BME280;5726;42.160;24.746;2023-04-02T09:19:17;98736.59;;;19.24;36.69
11343;BME280;5726;42.160;24.746;2023-04-02T09:21:57;98732.41;;;19.30;37.21
11343;BME280;5726;42.160;24.746;2023-04-02T09:24:26;98726.41;;;19.43;36.51
11343;BME280;5726;42.160;24.746;2023-04-02T09:26:51;98734.56;;;19.43;36.79
11343;BME280;5726;42.160;24.746;2023-04-02T09:29:39;98730.47;;;19.53;36.59
11343;BME280;5726;42.160;24.746;2023-04-02T09:32:17;98727.06;;;19.59;36.99
11343;BME280;5726;42.160;24.746;2023-04-02T09:34:46;98720.94;;;19.65;36.56
11343;BME280;5726;42.160;24.746;2023-04-02T09:37:20;98706.19;;;19.66;36.71
11343;BME280;5726;42.160;24.746;2023-04-02T09:39:49;98718.66;;;19.93;37.11
11343;BME280;5726;42.160;24.746;2023-04-02T09:42:32;98724.22;;;20.33;34.58
11343;BME280;5726;42.160;24.746;2023-04-02T09:45:20;98707.69;;;20.15;34.27
11343;BME280;5726;42.160;24.746;2023-04-02T09:47:48;98713.13;;;20.15;34.56
11343;BME280;5726;42.160;24.746;2023-04-02T09:50:21;98710.88;;;20.21;33.46
11343;BME280;5726;42.160;24.746;2023-04-02T09:52:49;98709.22;;;20.13;34.14
11343;BME280;5726;42.160;24.746;2023-04-02T09:57:41;98701.59;;;20.25;31.61
11343;BME280;5726;42.160;24.746;2023-04-02T10:02:41;98688.47;;;20.34;31.58
11343;BME280;5726;42.160;24.746;2023-04-02T10:05:21;98687.63;;;20.27;31.21
11343;BME280;5726;42.160;24.746;2023-04-02T10:07:53;98687.94;;;20.55;31.29
11343;BME280;5726;42.160;24.746;2023-04-02T10:10:34;98682.47;;;20.55;30.73
11343;BME280;5726;42.160;24.746;2023-04-02T10:13:22;98676.38;;;20.64;30.46
11343;BME280;5726;42.160;24.746;2023-04-02T10:18:26;98665.72;;;20.85;28.42
11343;BME280;5726;42.160;24.746;2023-04-02T10:20:56;98668.91;;;20.94;27.80
11343;BME280;5726;42.160;24.746;2023-04-02T10:23:27;98663.94;;;21.03;27.86
11343;BME280;5726;42.160;24.746;2023-04-02T10:34:38;98663.63;;;21.15;28.55
11343;BME280;5726;42.160;24.746;2023-04-02T10:40:04;98661.88;;;20.93;29.76
11343;BME280;5726;42.160;24.746;2023-04-02T10:46:06;98665.34;;;20.87;29.36
11343;BME280;5726;42.160;24.746;2023-04-02T10:48:56;98665.75;;;20.92;29.18
11343;BME280;5726;42.160;24.746;2023-04-02T10:51:40;98652.75;;;21.18;28.91
11343;BME280;5726;42.160;24.746;2023-04-02T10:54:42;98648.88;;;21.23;28.78
11343;BME280;5726;42.160;24.746;2023-04-02T10:59:48;98632.47;;;21.16;26.08
11343;BME280;5726;42.160;24.746;2023-04-02T11:05:13;98630.28;;;21.35;27.72
11343;BME280;5726;42.160;24.746;2023-04-02T11:07:48;98638.22;;;21.51;28.09
11343;BME280;5726;42.160;24.746;2023-04-02T11:10:16;98633.59;;;21.61;27.56
11343;BME280;5726;42.160;24.746;2023-04-02T11:12:56;98617.06;;;21.41;27.27
11343;BME280;5726;42.160;24.746;2023-04-02T11:15:23;98624.22;;;21.56;28.28
11343;BME280;5726;42.160;24.746;2023-04-02T11:17:49;98628.84;;;21.52;28.70
11343;BME280;5726;42.160;24.746;2023-04-02T11:20:40;98614.94;;;21.67;27.95
11343;BME280;5726;42.160;24.746;2023-04-02T11:23:11;98621.88;;;21.58;28.63
11343;BME280;5726;42.160;24.746;2023-04-02T11:25:40;98619.28;;;21.85;28.58
11343;BME280;5726;42.160;24.746;2023-04-02T11:30:40;98622.31;;;21.63;27.80
11343;BME280;5726;42.160;24.746;2023-04-02T11:38:50;98607.06;;;21.59;28.28
11343;BME280;5726;42.160;24.746;2023-04-02T11:44:51;98593.88;;;21.64;28.18
11343;BME280;5726;42.160;24.746;2023-04-02T11:49:59;98598.94;;;21.72;28.14
11343;BME280;5726;42.160;24.746;2023-04-02T11:52:50;98594.25;;;21.62;27.88
11343;BME280;5726;42.160;24.746;2023-04-02T11:55:20;98589.22;;;21.71;27.59
11343;BME280;5726;42.160;24.746;2023-04-02T12:06:21;98581.84;;;21.86;27.58
11343;BME280;5726;42.160;24.746;2023-04-02T12:11:46;98580.22;;;21.64;28.44
11343;BME280;5726;42.160;24.746;2023-04-02T12:16:59;98571.31;;;21.84;27.71
11343;BME280;5726;42.160;24.746;2023-04-02T12:19:25;98568.97;;;21.79;28.00
11343;BME280;5726;42.160;24.746;2023-04-02T12:21:52;98568.22;;;21.82;28.55
11343;BME280;5726;42.160;24.746;2023-04-02T12:24:22;98570.03;;;21.58;28.54
11343;BME280;5726;42.160;24.746;2023-04-02T12:27:06;98560.34;;;21.70;28.25
11343;BME280;5726;42.160;24.746;2023-04-02T12:29:32;98571.97;;;21.54;29.00
11343;BME280;5726;42.160;24.746;2023-04-02T12:31:58;98565.44;;;21.75;28.35
11343;BME280;5726;42.160;24.746;2023-04-02T12:34:26;98571.31;;;21.84;28.68
11343;BME280;5726;42.160;24.746;2023-04-02T12:36:59;98565.13;;;21.94;27.91
11343;BME280;5726;42.160;24.746;2023-04-02T12:39:27;98559.28;;;21.92;28.10
11343;BME280;5726;42.160;24.746;2023-04-02T12:41:52;98560.50;;;22.12;28.15
11343;BME280;5726;42.160;24.746;2023-04-02T12:44:22;98564.75;;;21.99;28.46
11343;BME280;5726;42.160;24.746;2023-04-02T12:46:48;98559.72;;;22.08;27.53
11343;BME280;5726;42.160;24.746;2023-04-02T12:52:02;98562.56;;;22.50;27.11
11343;BME280;5726;42.160;24.746;2023-04-02T12:54:37;98561.41;;;22.71;27.02
11343;BME280;5726;42.160;24.746;2023-04-02T12:59:55;98544.19;;;22.29;27.36
11343;BME280;5726;42.160;24.746;2023-04-02T13:02:25;98553.41;;;21.83;28.33
11343;BME280;5726;42.160;24.746;2023-04-02T13:04:59;98555.50;;;22.35;27.40
11343;BME280;5726;42.160;24.746;2023-04-02T13:07:29;98557.84;;;22.36;27.38
11343;BME280;5726;42.160;24.746;2023-04-02T13:09:58;98554.59;;;21.96;28.43
11343;BME280;5726;42.160;24.746;2023-04-02T13:12:38;98558.19;;;22.17;28.49
11343;BME280;5726;42.160;24.746;2023-04-02T13:15:23;98547.34;;;22.42;27.89
11343;BME280;5726;42.160;24.746;2023-04-02T13:18:19;98542.69;;;22.66;27.18
11343;BME280;5726;42.160;24.746;2023-04-02T13:21:04;98544.22;;;22.60;27.71
11343;BME280;5726;42.160;24.746;2023-04-02T13:23:31;98540.28;;;22.27;28.45
11343;BME280;5726;42.160;24.746;2023-04-02T13:29:03;98535.63;;;22.45;27.87
11343;BME280;5726;42.160;24.746;2023-04-02T13:31:35;98532.88;;;22.27;28.13
11343;BME280;5726;42.160;24.746;2023-04-02T13:34:01;98535.59;;;22.24;29.03
11343;BME280;5726;42.160;24.746;2023-04-02T13:36:27;98522.31;;;22.26;28.42
11343;BME280;5726;42.160;24.746;2023-04-02T13:38:54;98529.25;;;21.92;29.61
11343;BME280;5726;42.160;24.746;2023-04-02T13:41:29;98545.75;;;22.30;28.99
11343;BME280;5726;42.160;24.746;2023-04-02T13:44:00;98541.47;;;22.33;29.06
11343;BME280;5726;42.160;24.746;2023-04-02T13:46:28;98531.72;;;22.53;28.41
11343;BME280;5726;42.160;24.746;2023-04-02T13:48:56;98516.09;;;22.36;28.46
11343;BME280;5726;42.160;24.746;2023-04-02T13:51:32;98530.09;;;22.20;28.89
11343;BME280;5726;42.160;24.746;2023-04-02T13:54:00;98523.53;;;22.49;28.31
11343;BME280;5726;42.160;24.746;2023-04-02T13:56:27;98540.28;;;22.27;28.85
11343;BME280;5726;42.160;24.746;2023-04-02T13:58:56;98540.69;;;22.46;28.10
11343;BME280;5726;42.160;24.746;2023-04-02T14:01:22;98535.22;;;22.50;28.11
11343;BME280;5726;42.160;24.746;2023-04-02T14:03:51;98531.72;;;22.80;27.64
11343;BME280;5726;42.160;24.746;2023-04-02T14:09:28;98541.88;;;22.49;27.74
11343;BME280;5726;42.160;24.746;2023-04-02T14:11:59;98529.38;;;22.48;28.42
11343;BME280;5726;42.160;24.746;2023-04-02T14:15:05;98537.16;;;22.32;28.04
11343;BME280;5726;42.160;24.746;2023-04-02T14:17:51;98543.00;;;22.27;27.93
11343;BME280;5726;42.160;24.746;2023-04-02T14:26:36;98536.97;;;21.69;30.13
11343;BME280;5726;42.160;24.746;2023-04-02T14:29:32;98534.75;;;22.09;28.72
11343;BME280;5726;42.160;24.746;2023-04-02T14:40:51;98531.88;;;21.68;29.26
11343;BME280;5726;42.160;24.746;2023-04-02T14:43:44;98532.47;;;22.25;27.99
11343;BME280;5726;42.160;24.746;2023-04-02T14:46:14;98537.88;;;22.08;28.51
11343;BME280;5726;42.160;24.746;2023-04-02T14:51:50;98531.69;;;22.32;27.74
11343;BME280;5726;42.160;24.746;2023-04-02T14:54:33;98527.81;;;22.40;27.56
11343;BME280;5726;42.160;24.746;2023-04-02T14:57:37;98529.75;;;22.36;28.31
11343;BME280;5726;42.160;24.746;2023-04-02T15:00:34;98530.53;;;22.29;28.88
11343;BME280;5726;42.160;24.746;2023-04-02T15:03:12;98520.00;;;22.42;27.86
11343;BME280;5726;42.160;24.746;2023-04-02T15:08:38;98530.94;;;22.45;27.57
11343;BME280;5726;42.160;24.746;2023-04-02T15:11:14;98538.75;;;22.57;28.17
11343;BME280;5726;42.160;24.746;2023-04-02T15:16:23;98541.38;;;22.15;27.93
11343;BME280;5726;42.160;24.746;2023-04-02T15:18:58;98550.03;;;22.21;27.82
11343;BME280;5726;42.160;24.746;2023-04-02T15:25:04;98551.09;;;21.99;27.82
11343;BME280;5726;42.160;24.746;2023-04-02T15:34:48;98551.13;;;22.06;27.59
11343;BME280;5726;42.160;24.746;2023-04-02T15:42:48;98550.41;;;22.23;27.11
11343;BME280;5726;42.160;24.746;2023-04-02T15:45:41;98558.94;;;22.08;26.90
11343;BME280;5726;42.160;24.746;2023-04-02T15:48:10;98556.56;;;21.96;26.58
11343;BME280;5726;42.160;24.746;2023-04-02T15:50:57;98559.63;;;21.87;27.12
11343;BME280;5726;42.160;24.746;2023-04-02T15:58:45;98570.97;;;21.89;26.55
11343;BME280;5726;42.160;24.746;2023-04-02T16:01:39;98579.13;;;21.79;27.42
11343;BME280;5726;42.160;24.746;2023-04-02T16:09:49;98580.50;;;21.49;27.17
11343;BME280;5726;42.160;24.746;2023-04-02T16:12:19;98590.16;;;21.36;28.00
11343;BME280;5726;42.160;24.746;2023-04-02T16:14:47;98583.56;;;21.44;29.07
11343;BME280;5726;42.160;24.746;2023-04-02T16:17:25;98578.50;;;21.42;28.09
11343;BME280;5726;42.160;24.746;2023-04-02T16:20:23;98582.09;;;21.50;28.05
11343;BME280;5726;42.160;24.746;2023-04-02T16:23:10;98581.31;;;21.56;27.70
11343;BME280;5726;42.160;24.746;2023-04-02T16:25:48;98583.66;;;21.51;29.09
11343;BME280;5726;42.160;24.746;2023-04-02T16:28:26;98589.13;;;21.51;29.37
11343;BME280;5726;42.160;24.746;2023-04-02T16:36:15;98592.28;;;21.66;27.44
11343;BME280;5726;42.160;24.746;2023-04-02T16:42:03;98590.75;;;21.65;28.15
11343;BME280;5726;42.160;24.746;2023-04-02T16:56:10;98590.88;;;21.29;27.23
11343;BME280;5726;42.160;24.746;2023-04-02T17:01:27;98587.16;;;20.94;28.13
11343;BME280;5726;42.160;24.746;2023-04-02T17:04:09;98590.56;;;20.84;28.73